Time;durP1;ratioP1;P1;durP2;ratioP2;P2;SDS_P1;SDS_P2;PMS_P1;PMS_P2;Temp;Humidity;BMP_temperature;BMP_pressure;BME280_temperature;BME280_humidity;BME280_pressure;Samples;Min_cycle;Max_cycle;Signal;HPM_P1;HPM_P2
2020/05/12 00:01:14;;;;;;;4.5;4.2;;;;;;;4.51;100;956.0114;;;;
2020/05/12 00:02:56;;;;;;;4.5;4.1;;;;;;;4.43;100;956.0233;;;;
2020/05/12 00:05:35;;;;;;;4.8;4.3;;;;;;;4.49;100;956.0706;;;;
2020/05/12 00:10:11;;;;;;;3.9;3.6;;;;;;;4.48;100;956.062;;;;
2020/05/12 00:12:37;;;;;;;4.3;3.9;;;;;;;4.52;100;956.0539;;;;
2020/05/12 00:15:02;;;;;;;5;4.5;;;;;;;4.74;100;956.0851;;;;
2020/05/12 00:17:29;;;;;;;4.7;4;;;;;;;4.62;100;956.0694;;;;
2020/05/12 00:19:54;;;;;;;4.4;3.7;;;;;;;4.67;100;956.1263;;;;
2020/05/12 00:22:19;;;;;;;4;3.6;;;;;;;4.52;100;956.1121;;;;
2020/05/12 00:24:44;;;;;;;2.6;2.4;;;;;;;4.48;100;956.0949;;;;
2020/05/12 00:27:10;;;;;;;2.9;2.7;;;;;;;4.47;100;956.043;;;;
2020/05/12 00:29:35;;;;;;;3.2;2.9;;;;;;;4.31;100;956.0914;;;;
2020/05/12 00:32:00;;;;;;;4.1;3.5;;;;;;;4.34;100;956.1166;;;;
2020/05/12 00:34:25;;;;;;;3.4;3;;;;;;;4.42;100;956.1339;;;;
2020/05/12 00:36:50;;;;;;;4.6;2.9;;;;;;;4.47;100;956.1674;;;;
2020/05/12 00:39:16;;;;;;;4;3.1;;;;;;;4.36;100;956.2043;;;;
2020/05/12 00:41:42;;;;;;;3.3;3;;;;;;;4.38;100;956.2706;;;;
2020/05/12 00:44:07;;;;;;;3.9;3.4;;;;;;;4.47;100;956.3569;;;;
2020/05/12 00:46:32;;;;;;;4.2;3.7;;;;;;;4.45;100;956.3519;;;;
2020/05/12 00:48:58;;;;;;;4.3;2.8;;;;;;;4.47;100;956.3416;;;;
2020/05/12 00:51:24;;;;;;;5;3.7;;;;;;;4.53;100;956.4108;;;;
2020/05/12 00:53:49;;;;;;;4.9;3.2;;;;;;;4.52;100;956.4589;;;;
2020/05/12 00:56:15;;;;;;;4;2.8;;;;;;;4.55;100;956.4906;;;;
2020/05/12 00:58:40;;;;;;;4.8;2.9;;;;;;;4.47;99.8291;956.4998;;;;
2020/05/12 01:01:08;;;;;;;3.6;2.8;;;;;;;4.52;99.83887;956.5295;;;;
2020/05/12 01:06:21;;;;;;;5.6;3;;;;;;;4.44;100;956.6259;;;;
2020/05/12 01:09:23;;;;;;;2.7;2.4;;;;;;;4.41;100;956.6475;;;;
2020/05/12 01:10:57;;;;;;;4.1;3;;;;;;;4.44;100;956.7189;;;;
2020/05/12 01:13:25;;;;;;;4.3;2.9;;;;;;;4.45;100;956.7344;;;;
2020/05/12 01:15:48;;;;;;;3.8;2.7;;;;;;;4.47;100;956.8175;;;;
2020/05/12 01:18:12;;;;;;;3.2;2.8;;;;;;;4.47;100;956.8772;;;;
2020/05/12 01:20:38;;;;;;;2.7;2.3;;;;;;;4.33;96.46289;956.8501;;;;
2020/05/12 01:23:04;;;;;;;3.4;2.6;;;;;;;4.52;100;956.8533;;;;
2020/05/12 01:25:29;;;;;;;3.5;2.8;;;;;;;4.46;100;956.8753;;;;
2020/05/12 01:27:55;;;;;;;4.9;3.2;;;;;;;4.47;100;956.9338;;;;
2020/05/12 01:30:20;;;;;;;3.6;3.3;;;;;;;4.33;100;956.9324;;;;
2020/05/12 01:32:45;;;;;;;3.8;2.8;;;;;;;4.54;100;956.9532;;;;
2020/05/12 01:35:10;;;;;;;3.5;2.8;;;;;;;4.32;100;956.9266;;;;
2020/05/12 01:37:35;;;;;;;3.4;2.9;;;;;;;4.5;100;956.8953;;;;
2020/05/12 01:40:00;;;;;;;3.3;2.8;;;;;;;4.52;100;956.9575;;;;
2020/05/12 01:42:25;;;;;;;4.7;2.3;;;;;;;4.46;99.08008;956.9512;;;;
2020/05/12 01:44:50;;;;;;;5.1;3;;;;;;;4.47;100;956.9313;;;;
2020/05/12 01:47:15;;;;;;;3.7;2.8;;;;;;;4.44;100;956.9503;;;;
2020/05/12 01:49:40;;;;;;;3.8;2.6;;;;;;;4.46;97.96582;956.9608;;;;
2020/05/12 01:52:05;;;;;;;5.4;2.7;;;;;;;4.46;98.29688;957.0255;;;;
2020/05/12 01:54:30;;;;;;;5.1;3.1;;;;;;;4.38;100;957.0366;;;;
2020/05/12 01:56:56;;;;;;;7.1;3.7;;;;;;;4.47;100;957.074;;;;
2020/05/12 01:59:22;;;;;;;5.2;2.9;;;;;;;4.44;99.15332;957.1205;;;;
2020/05/12 02:01:47;;;;;;;5.8;3.9;;;;;;;4.46;100;957.152;;;;
2020/05/12 02:04:12;;;;;;;5;2.8;;;;;;;4.38;96.2793;957.1794;;;;
2020/05/12 02:07:05;;;;;;;4.2;2.6;;;;;;;4.42;95.4502;957.1898;;;;
2020/05/12 02:09:28;;;;;;;4.1;2.6;;;;;;;4.41;95.04004;957.2;;;;
2020/05/12 02:11:31;;;;;;;3.7;2.5;;;;;;;4.43;96.22363;957.2106;;;;
2020/05/12 02:13:58;;;;;;;2.5;2.1;;;;;;;4.28;93.56934;957.2048;;;;
2020/05/12 02:16:23;;;;;;;4;2.1;;;;;;;4.22;91.92285;957.2783;;;;
2020/05/12 02:18:48;;;;;;;4.5;2.4;;;;;;;4.29;97.58398;957.334;;;;
2020/05/12 02:21:13;;;;;;;3.7;2.6;;;;;;;4.25;99.85742;957.3826;;;;
2020/05/12 02:23:39;;;;;;;3.3;2.5;;;;;;;4.45;100;957.3279;;;;
2020/05/12 02:26:04;;;;;;;3;2.4;;;;;;;4.37;98.89648;957.4167;;;;
2020/05/12 02:28:31;;;;;;;4.3;2.7;;;;;;;4.21;98.90625;957.4501;;;;
2020/05/12 02:30:56;;;;;;;5.7;3.4;;;;;;;4.19;100;957.503;;;;
2020/05/12 02:33:21;;;;;;;6.3;3.8;;;;;;;4.34;100;957.524;;;;
2020/05/12 02:35:46;;;;;;;5.6;3.1;;;;;;;4.29;96.64551;957.5461;;;;
2020/05/12 02:38:11;;;;;;;8;3.6;;;;;;;4.42;99.77246;957.5061;;;;
2020/05/12 02:40:37;;;;;;;7.5;3.7;;;;;;;4.33;100;957.5597;;;;
2020/05/12 02:43:02;;;;;;;7.3;2.8;;;;;;;4.29;99.14258;957.5722;;;;
2020/05/12 02:45:27;;;;;;;5.2;2.9;;;;;;;4.24;97.81445;957.6152;;;;
2020/05/12 02:47:53;;;;;;;2.7;2.2;;;;;;;4.3;94.25586;957.6151;;;;
2020/05/12 02:50:18;;;;;;;4.9;2.2;;;;;;;4.31;93.71191;957.6104;;;;
2020/05/12 02:52:43;;;;;;;4.1;2.3;;;;;;;4.36;95.3457;957.6401;;;;
2020/05/12 02:55:10;;;;;;;3.7;1.9;;;;;;;4.28;93.53516;957.6226;;;;
2020/05/12 02:57:35;;;;;;;3.1;2.4;;;;;;;4.26;94.90332;957.6088;;;;
2020/05/12 03:00:00;;;;;;;3.4;2.3;;;;;;;4.24;93.26465;957.6208;;;;
2020/05/12 03:02:25;;;;;;;2.7;2;;;;;;;4.23;94.05664;957.622;;;;
2020/05/12 03:04:52;;;;;;;4.1;2.2;;;;;;;4.2;91.95313;957.5524;;;;
2020/05/12 03:07:17;;;;;;;2.4;2.2;;;;;;;4.22;94.11133;957.5492;;;;
2020/05/12 03:09:43;;;;;;;4.1;2.4;;;;;;;4.22;93.03418;957.5899;;;;
2020/05/12 03:12:11;;;;;;;6.7;3.5;;;;;;;4.2;96.9541;957.6097;;;;
2020/05/12 03:14:36;;;;;;;21.4;7.6;;;;;;;4.23;95.27051;957.6552;;;;
2020/05/12 03:17:20;;;;;;;18.5;6.5;;;;;;;4.34;92.08594;957.6517;;;;
2020/05/12 03:19:34;;;;;;;17.2;6;;;;;;;4.17;94.38477;957.6383;;;;
2020/05/12 03:22:36;;;;;;;8;3.8;;;;;;;4.08;94.38574;957.6708;;;;
2020/05/12 03:26:45;;;;;;;2.8;2.2;;;;;;;4.07;93.83008;957.7706;;;;
2020/05/12 03:31:53;;;;;;;6.5;3.3;;;;;;;4.03;93.54883;957.7994;;;;
2020/05/12 03:36:25;;;;;;;5;2.7;;;;;;;4.09;96.33008;957.8511;;;;
2020/05/12 03:38:49;;;;;;;4.2;2.5;;;;;;;4.16;96.29688;957.8503;;;;
2020/05/12 03:41:14;;;;;;;3.7;2.4;;;;;;;4.11;93.78125;957.8721;;;;
2020/05/12 03:43:41;;;;;;;3.5;1.9;;;;;;;3.96;92.46777;957.9197;;;;
2020/05/12 03:46:06;;;;;;;4.8;2.1;;;;;;;3.98;90.98633;957.9603;;;;
2020/05/12 03:48:32;;;;;;;3.9;2.6;;;;;;;4.02;95.63184;957.9934;;;;
2020/05/12 03:50:57;;;;;;;3.7;2.4;;;;;;;4.07;93.64648;957.9975;;;;
2020/05/12 03:53:23;;;;;;;3.5;2.2;;;;;;;4.04;91.63672;958.0016;;;;
2020/05/12 03:56:11;;;;;;;3.6;2.1;;;;;;;4.04;92.06543;958.0156;;;;
2020/05/12 04:07:14;;;;;;;3.3;2.2;;;;;;;3.92;94.48633;958.1742;;;;
2020/05/12 04:07:27;;;;;;;2.7;2.1;;;;;;;3.85;92.4668;958.1859;;;;
2020/05/12 04:16:31;;;;;;;3.1;2.2;;;;;;;4.03;89.87402;958.2054;;;;
2020/05/12 04:18:56;;;;;;;3.7;2.2;;;;;;;3.93;91.94043;958.2015;;;;
2020/05/12 04:21:23;;;;;;;4.5;2.2;;;;;;;3.89;92.63477;958.259;;;;
2020/05/12 04:23:48;;;;;;;3;2.2;;;;;;;3.86;91.32617;958.2262;;;;
2020/05/12 04:26:14;;;;;;;4.1;2.3;;;;;;;3.9;92.42188;958.2681;;;;
2020/05/12 04:28:39;;;;;;;4.3;2.1;;;;;;;3.88;90.25391;958.2961;;;;
2020/05/12 04:31:18;;;;;;;3.7;2.2;;;;;;;3.92;91.99316;958.3992;;;;
2020/05/12 04:36:01;;;;;;;3.1;2.4;;;;;;;3.97;91.82324;958.4094;;;;
2020/05/12 04:43:12;;;;;;;4.4;2.2;;;;;;;3.86;93.30859;958.5695;;;;
2020/05/12 04:48:06;;;;;;;4.2;2.3;;;;;;;3.89;91.43359;958.6305;;;;
2020/05/12 04:50:37;;;;;;;4.3;2.7;;;;;;;3.85;93.85059;958.6616;;;;
2020/05/12 04:55:36;;;;;;;3.3;2;;;;;;;3.96;89.96289;958.7252;;;;
2020/05/12 04:57:47;;;;;;;4.1;2.2;;;;;;;3.88;90.75;958.6973;;;;
2020/05/12 05:00:23;;;;;;;3.4;2.2;;;;;;;3.97;90.28223;958.8013;;;;
2020/05/12 05:07:33;;;;;;;3;2.1;;;;;;;4.05;90.55957;958.762;;;;
2020/05/12 05:09:52;;;;;;;2.8;2.2;;;;;;;4.05;89.74316;958.8025;;;;
2020/05/12 05:12:34;;;;;;;2.4;2.1;;;;;;;4.08;88.96875;958.778;;;;
2020/05/12 05:14:47;;;;;;;4.8;2.1;;;;;;;4.04;91.39844;958.7673;;;;
2020/05/12 05:17:12;;;;;;;3.6;2.5;;;;;;;4.09;93.53906;958.8145;;;;
2020/05/12 05:19:37;;;;;;;3.2;2.4;;;;;;;4.23;88.72852;958.8431;;;;
2020/05/12 05:22:03;;;;;;;3.1;2.3;;;;;;;4.26;86.35254;958.9104;;;;
2020/05/12 05:24:28;;;;;;;3.7;2.2;;;;;;;4.08;87.4834;958.877;;;;
2020/05/12 05:26:53;;;;;;;2.4;1.9;;;;;;;4.23;86.26563;958.9172;;;;
2020/05/12 05:29:18;;;;;;;3.1;2.1;;;;;;;4.13;86.8125;958.9277;;;;
2020/05/12 05:31:45;;;;;;;2.7;2.1;;;;;;;4.14;90.125;958.8738;;;;
2020/05/12 05:36:39;;;;;;;3.5;2.5;;;;;;;3.92;89.625;958.8973;;;;
2020/05/12 05:39:01;;;;;;;2.8;2.1;;;;;;;3.95;88.0459;958.986;;;;
2020/05/12 05:41:32;;;;;;;2.3;1.8;;;;;;;4;83.97461;958.9525;;;;
2020/05/12 05:43:59;;;;;;;3.3;2;;;;;;;4.07;85.91797;958.937;;;;
2020/05/12 05:51:18;;;;;;;5;2.4;;;;;;;4.05;83.35059;958.9539;;;;
2020/05/12 05:53:41;;;;;;;2.5;2.3;;;;;;;3.9;87.76465;958.9564;;;;
2020/05/12 05:56:06;;;;;;;2.5;2.1;;;;;;;4.11;87.98828;958.9556;;;;
2020/05/12 05:58:31;;;;;;;4.1;2.2;;;;;;;4.15;87.13574;958.9919;;;;
2020/05/12 06:08:20;;;;;;;3.6;2.3;;;;;;;4.05;87.43066;958.9967;;;;
2020/05/12 06:10:52;;;;;;;2.7;2;;;;;;;4.12;84.01074;959.0123;;;;
2020/05/12 06:13:23;;;;;;;3.2;2.1;;;;;;;4.34;86.25488;958.9986;;;;
2020/05/12 06:15:56;;;;;;;3.7;1.9;;;;;;;4.6;87.29492;959.0187;;;;
2020/05/12 06:20:32;;;;;;;9.8;2.5;;;;;;;4.65;81.50391;959.041;;;;
2020/05/12 06:22:53;;;;;;;4.5;2.2;;;;;;;4.49;81.62012;959.0959;;;;
2020/05/12 06:25:18;;;;;;;4.1;1.7;;;;;;;4.55;83.02832;959.103;;;;
2020/05/12 06:30:08;;;;;;;4.2;2.2;;;;;;;4.76;77.54102;959.1683;;;;
2020/05/12 06:32:35;;;;;;;5.4;1.8;;;;;;;4.94;75.09668;959.1044;;;;
2020/05/12 06:35:06;;;;;;;9;2.3;;;;;;;4.92;79.75098;959.1625;;;;
2020/05/12 06:37:25;;;;;;;4.9;2.1;;;;;;;4.87;76.29004;959.1741;;;;
2020/05/12 06:39:50;;;;;;;3.2;1.6;;;;;;;4.83;74.12207;959.1613;;;;
2020/05/12 06:42:15;;;;;;;4;1.6;;;;;;;5.21;74.76953;959.1803;;;;
2020/05/12 06:44:42;;;;;;;2.8;1.6;;;;;;;5.36;74.2373;959.1998;;;;
2020/05/12 06:47:07;;;;;;;2.8;1.7;;;;;;;5.11;76.45605;959.2313;;;;
2020/05/12 06:49:33;;;;;;;3;1.8;;;;;;;5.08;75.04297;959.2445;;;;
2020/05/12 06:51:58;;;;;;;2.3;1.5;;;;;;;5.12;70.54688;959.2955;;;;
2020/05/12 06:54:26;;;;;;;4.4;2;;;;;;;5.13;71.0498;959.2797;;;;
2020/05/12 06:56:51;;;;;;;2.9;1.8;;;;;;;5.19;69.54883;959.291;;;;
2020/05/12 06:59:16;;;;;;;4.1;2;;;;;;;5.24;71.85254;959.3269;;;;
2020/05/12 07:01:41;;;;;;;4.1;1.7;;;;;;;5.32;70.52441;959.3289;;;;
2020/05/12 07:04:09;;;;;;;4.7;1.6;;;;;;;5.41;70.69824;959.3689;;;;
2020/05/12 07:06:34;;;;;;;3.4;1.8;;;;;;;5.58;72.62598;959.3833;;;;
2020/05/12 07:08:59;;;;;;;3.2;1.4;;;;;;;5.6;68.28516;959.3367;;;;
2020/05/12 07:11:24;;;;;;;3.9;1.5;;;;;;;5.58;68.71387;959.4296;;;;
2020/05/12 07:13:50;;;;;;;3.5;1.4;;;;;;;5.72;67.08398;959.4235;;;;
2020/05/12 07:16:15;;;;;;;2.4;1.4;;;;;;;5.67;68.85352;959.4531;;;;
2020/05/12 07:18:50;;;;;;;2.3;1.4;;;;;;;5.6;68.90918;959.389;;;;
2020/05/12 07:21:15;;;;;;;2.2;1.7;;;;;;;5.66;69.4541;959.423;;;;
2020/05/12 07:23:40;;;;;;;3.2;1.6;;;;;;;5.78;69.80469;959.4258;;;;
2020/05/12 07:26:05;;;;;;;3.2;1.6;;;;;;;5.98;69.61914;959.3845;;;;
2020/05/12 07:28:30;;;;;;;6.8;2.1;;;;;;;5.96;72.30273;959.4148;;;;
2020/05/12 07:30:55;;;;;;;5.9;2.4;;;;;;;6.09;71.24414;959.459;;;;
2020/05/12 07:33:20;;;;;;;6.7;1.9;;;;;;;5.99;69.53027;959.3812;;;;
2020/05/12 07:35:45;;;;;;;5.6;2.2;;;;;;;6.04;68.44434;959.432;;;;
2020/05/12 07:38:11;;;;;;;8.1;1.9;;;;;;;6.13;69.63379;959.4742;;;;
2020/05/12 07:40:36;;;;;;;5.1;1.9;;;;;;;5.88;66.80273;959.4858;;;;
2020/05/12 07:43:02;;;;;;;2.7;1.9;;;;;;;5.86;67.51855;959.4009;;;;
2020/05/12 07:45:27;;;;;;;1.8;1.2;;;;;;;5.86;65.49219;959.4641;;;;
2020/05/12 07:47:54;;;;;;;2.5;1.3;;;;;;;6.06;66.77441;959.4444;;;;
2020/05/12 07:50:19;;;;;;;2.8;1.3;;;;;;;5.86;66.70996;959.4414;;;;
2020/05/12 07:52:45;;;;;;;4;1.7;;;;;;;6.07;67.67578;959.5108;;;;
2020/05/12 07:55:10;;;;;;;3.2;1.7;;;;;;;5.98;68.94727;959.484;;;;
2020/05/12 07:57:36;;;;;;;4.9;1.8;;;;;;;6.21;66.5127;959.4745;;;;
2020/05/12 08:00:01;;;;;;;3.4;1.7;;;;;;;5.86;68.83887;959.4366;;;;
2020/05/12 08:02:27;;;;;;;3.1;1.8;;;;;;;5.93;68.48438;959.4586;;;;
2020/05/12 08:04:52;;;;;;;4.2;1.8;;;;;;;6.18;68.58105;959.4581;;;;
2020/05/12 08:07:19;;;;;;;3.9;2;;;;;;;6.35;66.43066;959.4043;;;;
2020/05/12 08:09:48;;;;;;;2.8;1.7;;;;;;;6.25;69.90332;959.3582;;;;
2020/05/12 08:17:25;;;;;;;2;1.5;;;;;;;6.31;65.32129;959.3356;;;;
2020/05/12 08:19:28;;;;;;;3.7;1.4;;;;;;;6.57;64.3916;959.3577;;;;
2020/05/12 08:21:49;;;;;;;2.8;1.5;;;;;;;6.57;66.77344;959.3956;;;;
2020/05/12 08:24:16;;;;;;;2.6;1.5;;;;;;;6.69;65.82324;959.3892;;;;
2020/05/12 08:26:41;;;;;;;3.9;1.6;;;;;;;6.48;66.21191;959.3318;;;;
2020/05/12 08:29:06;;;;;;;5.8;2;;;;;;;6.76;67.93164;959.4189;;;;
2020/05/12 08:31:32;;;;;;;7.5;2.2;;;;;;;6.74;67.27832;959.3755;;;;
2020/05/12 08:33:57;;;;;;;3.4;1.6;;;;;;;6.92;66.3252;959.4139;;;;
2020/05/12 08:36:22;;;;;;;5.2;1.7;;;;;;;6.98;66.2334;959.4321;;;;
2020/05/12 08:38:58;;;;;;;4.1;1.1;;;;;;;7.06;61.64551;959.472;;;;
2020/05/12 08:41:23;;;;;;;2.5;1.3;;;;;;;7.14;66.21289;959.3965;;;;
2020/05/12 08:43:48;;;;;;;2.6;1.4;;;;;;;7.12;61.49316;959.4141;;;;
2020/05/12 08:46:14;;;;;;;2.4;1.2;;;;;;;6.97;65.18066;959.4302;;;;
2020/05/12 08:48:39;;;;;;;2.1;1.2;;;;;;;6.98;63.67676;959.4442;;;;
2020/05/12 08:51:04;;;;;;;2.1;1.3;;;;;;;6.98;65.55957;959.4142;;;;
2020/05/12 08:53:32;;;;;;;2.3;1.3;;;;;;;7.22;62.68359;959.4542;;;;
2020/05/12 08:55:57;;;;;;;1.9;1.5;;;;;;;7;64.30762;959.4409;;;;
2020/05/12 08:58:23;;;;;;;2.3;1.4;;;;;;;7.02;65.23535;959.46;;;;
2020/05/12 09:00:50;;;;;;;2.8;1.4;;;;;;;7.25;66.53711;959.5054;;;;
2020/05/12 09:03:15;;;;;;;9.7;2.3;;;;;;;7.55;62.2998;959.5578;;;;
2020/05/12 09:05:41;;;;;;;2.4;1.4;;;;;;;7.43;62.46387;959.4625;;;;
2020/05/12 09:08:06;;;;;;;3.8;1.7;;;;;;;7.55;63.64648;959.4449;;;;
2020/05/12 09:10:32;;;;;;;3;1.7;;;;;;;7.78;62.73047;959.4081;;;;
2020/05/12 09:12:57;;;;;;;3.4;1.5;;;;;;;7.63;63.33887;959.4945;;;;
2020/05/12 09:18:00;;;;;;;2.1;1.4;;;;;;;7.62;63.00488;959.4737;;;;
2020/05/12 09:20:20;;;;;;;2.7;1.3;;;;;;;7.91;57.22461;959.2999;;;;
2020/05/12 09:22:44;;;;;;;1.6;1.3;;;;;;;7.98;59.13477;959.305;;;;
2020/05/12 09:25:09;;;;;;;4;1.8;;;;;;;8.01;61.40332;959.2336;;;;
2020/05/12 09:27:34;;;;;;;2.9;1.6;;;;;;;8.11;59.46191;959.2805;;;;
2020/05/12 09:30:00;;;;;;;2.6;1.3;;;;;;;8.18;61.53027;959.1418;;;;
2020/05/12 09:32:26;;;;;;;2.6;1.5;;;;;;;8.31;59.24902;959.1794;;;;
2020/05/12 09:34:51;;;;;;;1.6;1.1;;;;;;;8.42;57.06445;959.1674;;;;
2020/05/12 09:37:17;;;;;;;1.1;1;;;;;;;8.45;60.43652;959.1974;;;;
2020/05/12 09:39:43;;;;;;;1.7;1.1;;;;;;;8.64;56.56641;959.1981;;;;
2020/05/12 09:42:09;;;;;;;2.7;1.2;;;;;;;8.55;55.59277;959.1747;;;;
2020/05/12 09:44:35;;;;;;;1.4;1.2;;;;;;;8.1;56.67969;959.2167;;;;
2020/05/12 09:47:00;;;;;;;1.4;1;;;;;;;7.76;54.12988;959.212;;;;
2020/05/12 09:49:26;;;;;;;2.7;1.4;;;;;;;8.02;59.24316;959.2081;;;;
2020/05/12 09:56:16;;;;;;;1.3;1;;;;;;;8.46;53.01465;959.1463;;;;
2020/05/12 09:58:41;;;;;;;2;1.2;;;;;;;8.76;55.23047;959.1906;;;;
2020/05/12 10:01:06;;;;;;;2.9;1;;;;;;;8.95;53.83203;959.0891;;;;
2020/05/12 10:03:31;;;;;;;1.9;1.2;;;;;;;9.05;51.92969;959.1564;;;;
2020/05/12 10:05:56;;;;;;;2.3;1;;;;;;;8.98;52.46094;959.1102;;;;
2020/05/12 10:08:21;;;;;;;9.3;1.8;;;;;;;9.01;51.12207;959.1133;;;;
2020/05/12 10:10:46;;;;;;;1.4;1.2;;;;;;;8.77;50.33594;959.0968;;;;
2020/05/12 10:13:11;;;;;;;1.1;0.6;;;;;;;8.77;44.78906;959.0822;;;;
2020/05/12 10:15:39;;;;;;;1.7;0.7;;;;;;;8.35;49.32617;959.0142;;;;
2020/05/12 10:18:04;;;;;;;1.5;1.1;;;;;;;8.48;46.49023;959.0383;;;;
2020/05/12 10:20:29;;;;;;;1.7;1;;;;;;;8.61;50.41016;958.9716;;;;
2020/05/12 10:22:54;;;;;;;2.1;0.9;;;;;;;8.46;54.11426;958.9563;;;;
2020/05/12 10:25:19;;;;;;;2.1;1;;;;;;;8.83;52.69434;958.9805;;;;
2020/05/12 10:27:44;;;;;;;1.5;1.2;;;;;;;8.81;49.88379;958.9434;;;;
2020/05/12 10:30:09;;;;;;;2.2;0.9;;;;;;;8.87;52.17188;958.9327;;;;
2020/05/12 10:32:36;;;;;;;1.5;1.1;;;;;;;9.03;52.82227;958.8836;;;;
2020/05/12 10:35:01;;;;;;;2.6;1.1;;;;;;;9.21;52.99316;958.8942;;;;
2020/05/12 10:37:28;;;;;;;1.8;1.1;;;;;;;8.96;51.5752;958.8666;;;;
2020/05/12 10:39:53;;;;;;;1.4;1.1;;;;;;;9.12;54.56543;958.8897;;;;
2020/05/12 10:42:23;;;;;;;4.2;3;;;;;;;9.35;52.76953;958.9016;;;;
2020/05/12 10:44:50;;;;;;;1.6;1.2;;;;;;;9.13;51.57227;958.8723;;;;
2020/05/12 10:47:14;;;;;;;1.2;1;;;;;;;9.31;49.05859;958.8692;;;;
2020/05/12 10:49:39;;;;;;;1.3;1;;;;;;;9.4;52.12109;958.8134;;;;
2020/05/12 10:52:04;;;;;;;1;0.9;;;;;;;9.61;50.21777;958.7317;;;;
2020/05/12 10:54:29;;;;;;;1.3;1.1;;;;;;;9.4;51.58105;958.6816;;;;
2020/05/12 10:56:55;;;;;;;1.1;1;;;;;;;9.68;52.72949;958.6306;;;;
2020/05/12 10:59:20;;;;;;;1.9;1;;;;;;;9.82;53.43652;958.5978;;;;
2020/05/12 11:01:45;;;;;;;1.6;0.9;;;;;;;10.04;50.20996;958.4702;;;;
2020/05/12 11:04:18;;;;;;;2;1;;;;;;;10.01;52.73535;958.4565;;;;
2020/05/12 11:06:47;;;;;;;2;1;;;;;;;9.69;52.2959;958.5464;;;;
2020/05/12 11:09:01;;;;;;;2.2;1.2;;;;;;;9.83;52.18555;958.4473;;;;
2020/05/12 11:11:28;;;;;;;1.9;1;;;;;;;9.87;48.88086;958.4402;;;;
2020/05/12 11:13:54;;;;;;;2;1.2;;;;;;;10.05;50.93652;958.4339;;;;
2020/05/12 11:16:19;;;;;;;1.1;1;;;;;;;9.55;48.6377;958.3596;;;;
2020/05/12 11:18:44;;;;;;;1.8;0.9;;;;;;;9.77;48.88086;958.3403;;;;
2020/05/12 11:21:09;;;;;;;1.4;1;;;;;;;9.95;53.0957;958.3797;;;;
2020/05/12 11:23:34;;;;;;;1.7;1.2;;;;;;;10.07;49.48926;958.4023;;;;
2020/05/12 11:26:00;;;;;;;1.7;1.1;;;;;;;9.89;48.00879;958.2784;;;;
2020/05/12 11:28:25;;;;;;;2;1.2;;;;;;;9.99;49.79102;958.2634;;;;
2020/05/12 11:30:52;;;;;;;1.8;1.1;;;;;;;10.18;51.12402;958.2571;;;;
2020/05/12 11:33:17;;;;;;;1.3;1;;;;;;;10.46;50.60449;958.2452;;;;
2020/05/12 11:35:42;;;;;;;1.8;1.2;;;;;;;10.42;49.87402;958.291;;;;
2020/05/12 11:38:07;;;;;;;1.5;1.1;;;;;;;10.3;49.51563;958.2082;;;;
2020/05/12 11:40:32;;;;;;;1.4;1.3;;;;;;;10.27;50.96191;958.145;;;;
2020/05/12 11:42:58;;;;;;;2.2;1.2;;;;;;;10.75;50.91406;958.144;;;;
2020/05/12 11:45:26;;;;;;;2.3;1.1;;;;;;;11.04;49.73828;958.1589;;;;
2020/05/12 11:47:56;;;;;;;1.7;1.3;;;;;;;10.68;49.20215;958.1472;;;;
2020/05/12 11:50:18;;;;;;;5.8;1.5;;;;;;;10.81;48.67578;958.1802;;;;
2020/05/12 11:52:44;;;;;;;6.1;1.3;;;;;;;10.79;48.7998;958.1666;;;;
2020/05/12 11:55:09;;;;;;;1.3;1.2;;;;;;;10.94;49.47461;958.0997;;;;
2020/05/12 11:57:34;;;;;;;2;1.3;;;;;;;11;48.96289;958.0353;;;;
2020/05/12 11:59:59;;;;;;;2;1.7;;;;;;;10.89;49.22656;957.9467;;;;
2020/05/12 12:02:25;;;;;;;1.8;1.3;;;;;;;11.31;48.65137;958.0114;;;;
2020/05/12 12:04:49;;;;;;;2;1.2;;;;;;;10.7;49.48145;958.0308;;;;
2020/05/12 12:07:15;;;;;;;1.5;1.3;;;;;;;10.89;49.3418;958.038;;;;
2020/05/12 12:09:40;;;;;;;1.6;1.1;;;;;;;10.8;49.20508;957.9478;;;;
2020/05/12 12:12:05;;;;;;;2.3;1.2;;;;;;;11.1;50.58789;957.9277;;;;
2020/05/12 12:14:35;;;;;;;2.3;1.3;;;;;;;11.29;48.11914;957.8699;;;;
2020/05/12 12:17:00;;;;;;;4;1.4;;;;;;;11.68;48.33496;957.9156;;;;
2020/05/12 12:19:26;;;;;;;2.1;1.4;;;;;;;11.53;47.78809;957.895;;;;
2020/05/12 12:21:51;;;;;;;2.1;1.4;;;;;;;11.72;48.38672;957.9282;;;;
2020/05/12 12:24:17;;;;;;;4.7;1.8;;;;;;;11.8;47.83008;957.913;;;;
2020/05/12 12:26:42;;;;;;;2;1.2;;;;;;;11.66;47.27148;957.8589;;;;
2020/05/12 12:29:09;;;;;;;1.3;1.2;;;;;;;12.12;47.65723;957.8515;;;;
2020/05/12 12:31:34;;;;;;;2.5;1.2;;;;;;;12.02;47.03418;957.7988;;;;
2020/05/12 12:34:01;;;;;;;1.5;1.2;;;;;;;12.05;46.4834;957.8195;;;;
2020/05/12 12:36:26;;;;;;;1.8;1.2;;;;;;;12.37;45.5459;957.8105;;;;
2020/05/12 12:38:52;;;;;;;2.7;1.2;;;;;;;12.87;45.5752;957.755;;;;
2020/05/12 12:41:17;;;;;;;2.7;1.4;;;;;;;13.06;44.66895;957.7578;;;;
2020/05/12 12:43:44;;;;;;;1.6;1.2;;;;;;;12.72;44.18359;957.7416;;;;
2020/05/12 12:46:10;;;;;;;1.6;1.2;;;;;;;12.27;43.7334;957.688;;;;
2020/05/12 12:48:35;;;;;;;1.9;1.2;;;;;;;12.67;41.14844;957.795;;;;
2020/05/12 12:51:00;;;;;;;1.7;1.3;;;;;;;12.6;41.01465;957.7668;;;;
2020/05/12 12:53:27;;;;;;;1.6;1.4;;;;;;;12.81;42.71191;957.6997;;;;
2020/05/12 12:55:52;;;;;;;2.3;1.4;;;;;;;12.7;42.62012;957.7012;;;;
2020/05/12 12:58:36;;;;;;;1.7;1.4;;;;;;;12.91;43.6582;957.7355;;;;
2020/05/12 13:00:46;;;;;;;1.7;1.3;;;;;;;12.77;43.81836;957.7494;;;;
2020/05/12 13:08:49;;;;;;;1.7;1.5;;;;;;;12.4;44.26563;957.5656;;;;
2020/05/12 13:11:32;;;;;;;2.2;1.2;;;;;;;11.98;43.70313;957.5347;;;;
2020/05/12 13:13:07;;;;;;;1.8;1.5;;;;;;;12.34;45.3457;957.5406;;;;
2020/05/12 13:15:37;;;;;;;2.6;1.3;;;;;;;11.98;46.74121;957.5208;;;;
2020/05/12 13:17:53;;;;;;;1.3;1.2;;;;;;;12.62;47.8623;957.5659;;;;
2020/05/12 13:20:17;;;;;;;2.4;1.4;;;;;;;13.16;45.86133;957.5098;;;;
2020/05/12 13:22:42;;;;;;;1.4;1.3;;;;;;;13.2;45.54102;957.4551;;;;
2020/05/12 13:25:09;;;;;;;1.4;1.2;;;;;;;13.05;43.76563;957.4633;;;;
2020/05/12 13:27:34;;;;;;;1.5;1.3;;;;;;;12.96;44.45117;957.4659;;;;
2020/05/12 13:30:01;;;;;;;2.3;1.3;;;;;;;12.91;43.87891;957.4353;;;;
2020/05/12 13:32:26;;;;;;;2.8;1.3;;;;;;;12.86;44.8457;957.421;;;;
2020/05/12 13:35:00;;;;;;;1.5;1.4;;;;;;;12.84;45.2373;957.3647;;;;
2020/05/12 13:37:17;;;;;;;1.5;1.4;;;;;;;12.8;44.52637;957.4168;;;;
2020/05/12 13:39:42;;;;;;;2.4;1.5;;;;;;;12.41;46.11719;957.3844;;;;
2020/05/12 13:42:21;;;;;;;2.6;1.8;;;;;;;11.88;44.94141;957.3614;;;;
2020/05/12 13:44:33;;;;;;;2;1.4;;;;;;;12.62;46.3584;957.3;;;;
2020/05/12 13:46:58;;;;;;;2.1;1.7;;;;;;;12.73;43.19043;957.3695;;;;
2020/05/12 13:49:27;;;;;;;3.1;1.6;;;;;;;12.52;44.42773;957.3451;;;;
2020/05/12 13:54:15;;;;;;;1.6;1.2;;;;;;;12.87;43.8623;957.3198;;;;
2020/05/12 13:56:39;;;;;;;1.9;1.4;;;;;;;12.84;43.75488;957.2518;;;;
2020/05/12 13:59:06;;;;;;;2.6;1.4;;;;;;;12.96;44.05762;957.2215;;;;
2020/05/12 14:01:47;;;;;;;2;1.3;;;;;;;13.54;41.79785;957.2466;;;;
2020/05/12 14:03:57;;;;;;;1.8;1.4;;;;;;;13.55;42.3916;957.2623;;;;
2020/05/12 14:06:23;;;;;;;3;1.4;;;;;;;12.66;46.35059;957.204;;;;
2020/05/12 14:08:48;;;;;;;1.8;1.5;;;;;;;12.93;45.6748;957.2286;;;;
2020/05/12 14:11:13;;;;;;;3.5;1.6;;;;;;;13.36;43.55273;957.0691;;;;
2020/05/12 14:13:44;;;;;;;1.5;1.3;;;;;;;13.35;45.53223;957.0446;;;;
2020/05/12 14:16:27;;;;;;;2.3;1.5;;;;;;;13.87;47.39648;957.0436;;;;
2020/05/12 14:18:37;;;;;;;1.9;1.4;;;;;;;13.79;44.68652;957.0466;;;;
2020/05/12 14:20:59;;;;;;;2.1;1.5;;;;;;;14.02;44.81543;957.0266;;;;
2020/05/12 14:23:25;;;;;;;1.9;1.5;;;;;;;13.75;45.52832;956.9032;;;;
2020/05/12 14:25:50;;;;;;;2.6;1.5;;;;;;;13.42;45.92285;956.8564;;;;
2020/05/12 14:28:19;;;;;;;2.2;1.4;;;;;;;13.31;43.71094;956.8856;;;;
2020/05/12 14:30:51;;;;;;;1.9;1.6;;;;;;;12.99;47.23242;956.8052;;;;
2020/05/12 14:35:41;;;;;;;1.9;1.5;;;;;;;13.36;44.25977;956.7318;;;;
2020/05/12 14:37:58;;;;;;;1.6;1.4;;;;;;;13.35;44.67578;956.7531;;;;
2020/05/12 14:40:23;;;;;;;1.8;1.6;;;;;;;13.5;47.24023;956.7086;;;;
2020/05/12 14:50:29;;;;;;;3.2;1.7;;;;;;;13.67;43.20215;956.61;;;;
2020/05/12 14:55:16;;;;;;;3.2;1.6;;;;;;;13.27;43.66016;956.6692;;;;
2020/05/12 15:00:11;;;;;;;2.7;1.5;;;;;;;13.92;43.95703;956.6612;;;;
2020/05/12 15:02:37;;;;;;;2.6;1.5;;;;;;;13.96;43.8916;956.6816;;;;
2020/05/12 15:07:36;;;;;;;2.2;1.6;;;;;;;13.72;43.49707;956.5666;;;;
2020/05/12 15:14:42;;;;;;;2.6;1.8;;;;;;;12.9;42.94141;956.4196;;;;
2020/05/12 15:16:57;;;;;;;2.6;2.2;;;;;;;12.68;45.92578;956.3831;;;;
2020/05/12 15:19:33;;;;;;;3;2.4;;;;;;;13.04;47.44531;956.3292;;;;
2020/05/12 15:21:38;;;;;;;2.8;2.2;;;;;;;12.76;48.09668;956.3394;;;;
2020/05/12 15:24:03;;;;;;;2.5;1.8;;;;;;;12.72;48.11719;956.3417;;;;
2020/05/12 15:26:28;;;;;;;2.5;1.7;;;;;;;12.39;47.61719;956.3538;;;;
2020/05/12 15:28:55;;;;;;;2.1;1.6;;;;;;;12.3;46.20996;956.2795;;;;
2020/05/12 15:31:20;;;;;;;2.1;1.5;;;;;;;12.4;46.37012;956.2687;;;;
2020/05/12 15:33:47;;;;;;;3.8;1.9;;;;;;;12.68;48.59668;956.2726;;;;
2020/05/12 15:36:12;;;;;;;2.1;1.7;;;;;;;12.76;48.99902;956.2773;;;;
2020/05/12 15:38:38;;;;;;;2.3;1.7;;;;;;;12.73;48.0127;956.2043;;;;
2020/05/12 15:41:06;;;;;;;2.9;2.1;;;;;;;12.57;48.39941;956.2134;;;;
2020/05/12 15:43:49;;;;;;;2;1.8;;;;;;;12.75;47.71484;956.2234;;;;
2020/05/12 15:46:14;;;;;;;2.4;2;;;;;;;12.9;48.93359;956.2544;;;;
2020/05/12 15:48:39;;;;;;;2.4;2.2;;;;;;;12.79;49.22266;956.2333;;;;
2020/05/12 15:51:04;;;;;;;2.5;2;;;;;;;12.9;48.22852;956.2634;;;;
2020/05/12 15:53:29;;;;;;;2.4;2;;;;;;;12.76;47.28809;956.265;;;;
2020/05/12 15:55:54;;;;;;;2.7;1.7;;;;;;;12.75;48.47754;956.1866;;;;
2020/05/12 15:58:20;;;;;;;1.9;1.7;;;;;;;12.79;48.96777;956.1802;;;;
2020/05/12 16:00:45;;;;;;;3.4;1.9;;;;;;;12.9;47.51074;956.1588;;;;
2020/05/12 16:03:11;;;;;;;2.4;1.7;;;;;;;12.83;46.0332;956.1688;;;;
2020/05/12 16:05:42;;;;;;;3.7;1.9;;;;;;;12.78;47.9375;956.1753;;;;
2020/05/12 16:08:01;;;;;;;2;1.8;;;;;;;12.84;47.75879;956.2222;;;;
2020/05/12 16:10:38;;;;;;;3.4;2.4;;;;;;;12.51;47.73438;956.1697;;;;
2020/05/12 16:13:03;;;;;;;2.5;1.8;;;;;;;12.54;46.77832;956.1021;;;;
2020/05/12 16:15:43;;;;;;;3.6;2.1;;;;;;;12.6;47.75586;956.1057;;;;
2020/05/12 16:17:56;;;;;;;3.3;2.1;;;;;;;12.3;47.22559;956.1447;;;;